Have a Safe July 4th! 

Flight Track Log - Related Links

Times and Time Zones

All times are in EDT time to prevent confusion due to time zone crossing. See the N830QS flight status page for this flight to view local times or setup timezone preferences in your user account.

Time Position Orientation Groundspeed Altitude Reporting Facility
EDT Latitude Longitude Course Direction KTS MPH feet Rate Location/Type
Wed 10:46:55 AM 32.7392 -117.2142 285° West 210 242 1,400  Level Los Angeles Center
Wed 10:47:57 AM 32.7556 -117.2869 285° West 225 259 4,200 3,387 Climbing Los Angeles Center
Wed 10:48:59 AM 32.6997 -117.3381 218° Southwest 254 292 8,400 3,435 Climbing Los Angeles Center
Wed 10:50:01 AM 32.6586 -117.2608 122° Southeast 288 331 11,300 2,585 Climbing Los Angeles Center
Wed 10:51:02 AM 32.6403 -117.1575 102° East 313 360 13,700 2,341 Climbing Los Angeles Center
Wed 10:52:04 AM 32.6219 -117.0481 101° East 332 382 16,100 2,371 Climbing Los Angeles Center
Wed 10:53:06 AM 32.6150 -116.9369 94° East 334 384 18,600 2,419 Climbing Los Angeles Center
Wed 10:54:08 AM 32.6250 -116.8247 84° East 342 394 21,100 2,419 Climbing Los Angeles Center
Wed 10:55:10 AM 32.6386 -116.6861 83° East 352 405 23,600 2,177 Climbing Los Angeles Center
Wed 10:56:12 AM 32.6506 -116.5669 83° East 364 419 25,600 1,645 Climbing Los Angeles Center
Wed 10:57:14 AM 32.6619 -116.4458 84° East 372 428 27,000 871 Climbing Los Angeles Center
Wed 10:58:16 AM 32.6733 -116.3125 84° East 410 472 27,400 823 Climbing Los Angeles Center
Wed 10:59:18 AM 32.6892 -116.1503 83° East 418 481 28,700 774 Climbing Los Angeles Center
Wed 11:00:20 AM 32.7033 -116.0128 83° East 423 487 29,000 145 Climbing Los Angeles Center
Wed 11:01:22 AM 32.7161 -115.8683 84° East 440 506 29,000  Level Los Angeles Center
Wed 11:02:24 AM 32.7294 -115.7231 84° East 444 511 29,000  Level Los Angeles Center
Wed 11:03:26 AM 32.7428 -115.5781 84° East 443 510 29,000  Level Los Angeles Center
Wed 11:04:28 AM 32.7514 -115.4431 86° East 418 481 29,000  Level Los Angeles Center
Wed 11:05:30 AM 32.7531 -115.2903 89° East 389 448 29,000  Level Los Angeles Center
Wed 11:06:32 AM 32.7594 -115.1511 87° East 420 483 29,000  Level Los Angeles Center
Wed 11:07:34 AM 32.7622 -115.0075 89° East 434 499 29,000  Level Los Angeles Center
Wed 11:08:36 AM 32.7647 -114.8631 89° East 439 505 29,000  Level Los Angeles Center
Wed 11:09:38 AM 32.7681 -114.7189 88° East 438 504 29,000  Level Los Angeles Center
Wed 11:10:40 AM 32.7700 -114.5750 89° East 437 503 29,000  Level Los Angeles Center
Wed 11:11:42 AM 32.7731 -114.4028 89° East 437 503 29,000 -484 Level Los Angeles Center
Wed 11:12:44 AM 32.7739 -114.2572 90° East 442 509 28,000 -1,597 Descending Los Angeles Center
Wed 11:13:46 AM 32.7758 -114.1164 89° East 429 494 25,700 -1,452 Descending Los Angeles Center
Wed 11:14:48 AM 32.7772 -113.9786 89° East 418 481 25,000 -339 Descending Los Angeles Center
Wed 11:15:50 AM 32.7964 -113.8417 81° East 423 487 25,000 -435 Level Los Angeles Center
Wed 11:16:52 AM 32.8300 -113.6742 77° East 443 510 24,100 -919 Descending Los Angeles Center
Wed 11:17:54 AM 32.9033 -113.5772 48° Northeast 429 494 23,100 -1,248 Descending Los Angeles Center
Wed 11:18:57 AM 32.9942 -113.4919 38° Northeast 416 479 21,500 -1,728 Descending Los Angeles Center
Wed 11:19:59 AM 33.0792 -113.4125 38° Northeast 395 455 19,500 -2,091 Descending Los Angeles Center
Wed 11:21:09 AM 33.1742 -113.3236 38° Northeast 371 427 16,900 -2,091 Descending Albuquerque Center
Wed 11:22:11 AM 33.2442 -113.2586 38° Northeast 347 399 14,900 -1,887 Descending Albuquerque Center
Wed 11:23:13 AM 33.3108 -113.1981 37° Northeast 324 373 13,000 -1,839 Descending Albuquerque Center
Wed 11:24:15 AM 33.3772 -113.1372 37° Northeast 311 358 11,100 -968 Descending Albuquerque Center
Wed 11:25:17 AM 33.4614 -113.0594 38° Northeast 312 359 11,000 -48 Descending Albuquerque Center
Wed 11:26:19 AM 33.5336 -112.9922 38° Northeast 318 366 11,000  Level Albuquerque Center
Wed 11:27:21 AM 33.5928 -112.9061 50° Northeast 332 382 11,000 -195 Level Albuquerque Center
Wed 11:28:22 AM 33.6381 -112.7933 64° Northeast 335 386 10,600 -984 Descending Albuquerque Center
Wed 11:29:23 AM 33.6756 -112.7025 64° Northeast 287 330 9,000 -1,296 Descending Albuquerque Center
Wed 11:30:27 AM 33.7075 -112.6206 65° Northeast 300 345 7,900 -762 Descending Albuquerque Center
Wed 11:31:29 AM 33.7464 -112.5203 65° Northeast 286 329 7,400 -677 Descending Albuquerque Center
Wed 11:32:31 AM 33.7800 -112.4328 65° Northeast 288 331 6,500 -677 Descending Albuquerque Center
Wed 11:33:33 AM 33.7775 -112.3389 92° East 279 321 6,000 -242 Descending Albuquerque Center
Wed 11:34:35 AM 33.7736 -112.2447 93° East 282 325 6,000  Level Albuquerque Center
Wed 11:35:37 AM 33.7689 -112.1558 94° East 273 314 6,000 -484 Level Albuquerque Center
Wed 11:36:39 AM 33.7647 -112.0672 93° East 225 259 5,000 -629 Descending Albuquerque Center
Wed 11:37:41 AM 33.7428 -112.0008 112° Southeast 226 260 4,700 -919 Descending Albuquerque Center
Wed 11:38:43 AM 33.6992 -111.9494 136° Southeast 223 257 3,100 -912 Descending Albuquerque Center
Wed 11:39:46 AM 33.6789 -111.8989 116° Southeast 186 214 2,800 -528 Descending Albuquerque Center
Wed 11:40:48 AM 33.6450 -111.8856 162° South 166 191 2,000 -629 Descending Albuquerque Center
Wed 11:41:50 AM 33.6153 -111.9147 219° Southwest 143 165 1,500 -484 Descending Albuquerque Center

Login

Don't have an account? Register now (free) for customized features, flight alerts, and more!